Atwater, CA

2:44 PM PDT on May 30, 2015 (GMT -0700)
Castle | | Change Station
CLOSE
Current Station
Airport
Location: Atwater,
Elevation: 187 ft
Nearby Weather Stations

Elev 187 ft 37.38 °N, 120.57 °W | Updated 59 minutes ago

Partly Cloudy
Partly Cloudy
93 °F
Feels Like 93 °F
N
8
Wind Variable Wind from WNW

Today
High -- | Low -- °F
--% Chance of Precip.
Yesterday
High -- | Low -- °F
Precip. -- in
5:44 AM 8:16 PM
Waxing Gibbous, 92% visible
Pressure 29.87 in
Visibility 10.0 miles
Clouds Few 3500 ft
Scattered Clouds 5000 ft
Dew Point 45 °F
Humidity 19%
Rainfall 0.00 in
Snow Depth Not available.
UV 9 out of 12
Pollen 6.20 out of 12
Air Quality Not available.
Flu Activity Sporadic
METAR KMER 302045Z 30007KT 10SM FEW035 SCT050 34/07 A2987

More Conditions Fewer Conditions

Pressure 29.87 in
Visibility 10.0 miles
Clouds Few 3500 ft
Scattered Clouds 5000 ft
Dew Point 45 °F
Humidity 19%
Rainfall 0.00 in
Snow Depth Not available.
UV 9 out of 12
Pollen 6.20 out of 12
Air Quality Not available.
Flu Activity Sporadic
METAR KMER 302045Z 30007KT 10SM FEW035 SCT050 34/07 A2987

More Conditions Fewer Conditions

10-Day Weather Forecast

Almanac

Astronomy

May. 30, 2015 Rise Set
Actual Time
Civil Twilight
Nautical Twilight
Astronomical Twilight
Moon
Length of Visible Light
Length of Day
Tomorrow will be .
, % of the Moon is Illuminated

Today's Extremes

State Highs State Lows

Community

WunderPhotos

Upload Photos

1,825,608 photos uploaded!

WunderBlogs® & News

Nearby

Air Quality

  Air Quality AQ Index Pollutant
Not available.

Snow Depth

Station Depth Elevation

Earthquake Activity

City Distance Mag. Time & Date
Minimum magnitude displayed is 2.5.

Coastal Water Temperatures

Place Temperature

Stations

Nearby Weather Stations

Station Location Temp. Windchill Dew Point Humidity Wind Precip. Elev Updated Type